Time;durP1;ratioP1;P1;durP2;ratioP2;P2;SDS_P1;SDS_P2;PMS_P1;PMS_P2;Temp;Humidity;BMP_temperature;BMP_pressure;BME280_temperature;BME280_humidity;BME280_pressure;Samples;Min_cycle;Max_cycle;Signal;HPM_P1;HPM_P2
2023/12/02 00:02:23;;;;;;;1.97;1.77;;;22.30;54.60;;;;;;5115245;28;20479;-82
2023/12/02 00:04:50;;;;;;;1.90;1.80;;;22.30;54.50;;;;;;5115298;28;20433;-83
2023/12/02 00:07:18;;;;;;;1.83;1.73;;;22.30;54.70;;;;;;5115303;28;20511;-83
2023/12/02 00:09:45;;;;;;;1.77;1.67;;;22.30;54.60;;;;;;5115432;28;20442;-83
2023/12/02 00:12:12;;;;;;;2.13;2.00;;;22.30;54.70;;;;;;5115147;28;20439;-83
2023/12/02 00:14:39;;;;;;;2.37;2.10;;;22.30;54.60;;;;;;5114763;28;20853;-83
2023/12/02 00:17:05;;;;;;;1.80;1.70;;;22.30;54.60;;;;;;5115128;28;20795;-83
2023/12/02 00:19:33;;;;;;;2.73;1.67;;;22.30;54.70;;;;;;5115089;28;20790;-83
2023/12/02 00:22:00;;;;;;;1.87;1.77;;;22.30;54.60;;;;;;5114904;28;20486;-83
2023/12/02 00:24:28;;;;;;;1.80;1.70;;;22.30;54.60;;;;;;5114763;28;20430;-95
2023/12/02 00:26:54;;;;;;;2.00;1.80;;;22.30;54.60;;;;;;5114835;28;20435;-95
2023/12/02 00:29:21;;;;;;;2.23;2.03;;;22.30;54.70;;;;;;5114804;28;20426;-83
2023/12/02 00:31:48;;;;;;;1.60;1.50;;;22.30;54.50;;;;;;5114746;28;20467;-83
2023/12/02 00:34:15;;;;;;;2.27;1.57;;;22.30;54.50;;;;;;5114715;28;20454;-83
2023/12/02 00:36:45;;;;;;;1.97;1.87;;;22.30;54.60;;;;;;5114585;28;20427;-83
2023/12/02 00:39:12;;;;;;;1.73;1.63;;;22.30;54.40;;;;;;5114801;28;20433;-83
2023/12/02 00:41:39;;;;;;;2.07;1.90;;;22.30;54.50;;;;;;5115238;28;20589;-83
2023/12/02 00:44:06;;;;;;;2.80;1.83;;;22.30;54.50;;;;;;5114550;28;20439;-95
2023/12/02 00:46:33;;;;;;;1.87;1.77;;;22.30;54.50;;;;;;5114601;28;20442;-83
2023/12/02 00:49:00;;;;;;;1.40;1.30;;;22.30;54.30;;;;;;5114564;28;20460;-90
2023/12/02 00:51:26;;;;;;;2.30;2.10;;;22.30;54.40;;;;;;5115099;28;20434;-83
2023/12/02 00:53:54;;;;;;;4.53;1.90;;;22.40;54.50;;;;;;5114591;28;20437;-83
2023/12/02 00:56:21;;;;;;;1.70;1.60;;;22.30;54.90;;;;;;5114843;28;20438;-83
2023/12/02 00:58:48;;;;;;;1.30;1.20;;;22.30;54.40;;;;;;5114456;28;20435;-83
2023/12/02 01:01:15;;;;;;;1.70;1.60;;;22.30;54.30;;;;;;5114756;28;20812;-83
2023/12/02 01:03:42;;;;;;;1.80;1.70;;;22.30;54.40;;;;;;5114170;28;20486;-83
2023/12/02 01:06:09;;;;;;;2.43;1.67;;;22.30;54.30;;;;;;5113613;28;20851;-95
2023/12/02 01:08:36;;;;;;;1.73;1.63;;;22.30;54.30;;;;;;5114308;28;20435;-83
2023/12/02 01:11:05;;;;;;;1.97;1.87;;;22.30;54.30;;;;;;5114243;28;20463;-83
2023/12/02 01:13:31;;;;;;;1.70;1.43;;;22.30;54.30;;;;;;5114483;28;20442;-94
2023/12/02 01:15:58;;;;;;;1.60;1.50;;;22.30;54.40;;;;;;5114070;28;20530;-94
2023/12/02 01:18:25;;;;;;;1.77;1.60;;;22.30;54.30;;;;;;5114167;28;20430;-95
2023/12/02 01:20:52;;;;;;;1.67;1.57;;;22.30;54.20;;;;;;5114147;28;20442;-83
2023/12/02 01:23:18;;;;;;;2.17;1.97;;;22.30;54.30;;;;;;5114134;28;20484;-83
2023/12/02 01:25:45;;;;;;;2.00;1.70;;;22.30;54.30;;;;;;5114056;28;20445;-83
2023/12/02 01:28:13;;;;;;;1.83;1.73;;;22.30;54.30;;;;;;5114065;28;20430;-83
2023/12/02 01:30:40;;;;;;;1.70;1.60;;;22.30;54.10;;;;;;5114161;28;20529;-87
2023/12/02 01:33:07;;;;;;;2.13;1.93;;;22.30;54.10;;;;;;5113907;28;20472;-83
2023/12/02 01:35:34;;;;;;;1.97;1.87;;;22.30;54.20;;;;;;5114203;28;20437;-94
2023/12/02 01:38:00;;;;;;;1.47;1.37;;;22.40;54.20;;;;;;5113996;28;20434;-86
2023/12/02 01:40:27;;;;;;;1.93;1.73;;;22.30;54.20;;;;;;5113880;28;20450;-84
2023/12/02 01:42:54;;;;;;;1.77;1.67;;;22.30;54.10;;;;;;5113791;28;20492;-83
2023/12/02 01:45:22;;;;;;;2.13;1.93;;;22.30;54.10;;;;;;5113887;28;20431;-84
2023/12/02 01:47:50;;;;;;;1.77;1.67;;;22.30;54.10;;;;;;5113819;28;20434;-83
2023/12/02 01:50:18;;;;;;;1.87;1.40;;;22.30;54.10;;;;;;5113781;28;20442;-83
2023/12/02 01:52:46;;;;;;;1.67;1.57;;;22.30;54.10;;;;;;5112907;28;20516;-83
2023/12/02 01:55:13;;;;;;;1.90;1.70;;;22.20;54.00;;;;;;5113855;28;20439;-95
2023/12/02 01:57:41;;;;;;;1.90;1.80;;;22.20;53.90;;;;;;5113841;28;20445;-83
2023/12/02 02:00:10;;;;;;;2.00;1.90;;;22.20;54.00;;;;;;5113541;28;20445;-83
2023/12/02 02:02:38;;;;;;;1.70;1.60;;;22.20;54.00;;;;;;5113738;28;20478;-95
2023/12/02 02:05:06;;;;;;;1.87;1.77;;;22.20;54.00;;;;;;5113649;28;20434;-83
2023/12/02 02:07:32;;;;;;;1.67;1.57;;;22.20;54.00;;;;;;5113640;28;20506;-83
2023/12/02 02:09:59;;;;;;;2.13;1.80;;;22.20;54.00;;;;;;5113925;28;20461;-83
2023/12/02 02:12:26;;;;;;;1.60;1.50;;;22.20;54.00;;;;;;5114008;28;20441;-95
2023/12/02 02:14:53;;;;;;;1.87;1.77;;;22.20;53.90;;;;;;5113246;28;20937;-83
2023/12/02 02:17:20;;;;;;;1.70;1.60;;;22.20;54.00;;;;;;5116792;28;20437;-94
2023/12/02 02:19:48;;;;;;;1.50;1.40;;;22.20;54.00;;;;;;5117595;28;20430;-83
2023/12/02 02:22:16;;;;;;;1.60;1.50;;;22.20;54.00;;;;;;5117450;28;20474;-96
2023/12/02 02:24:43;;;;;;;1.70;1.60;;;22.20;54.00;;;;;;5117499;28;20438;-94
2023/12/02 02:27:10;;;;;;;1.90;1.77;;;22.20;53.90;;;;;;5117372;28;20445;-82
2023/12/02 02:29:36;;;;;;;1.63;1.53;;;22.20;54.00;;;;;;5117573;28;20435;-95
2023/12/02 02:32:04;;;;;;;1.90;1.73;;;22.20;53.80;;;;;;5117414;28;20563;-83
2023/12/02 02:34:30;;;;;;;1.67;1.50;;;22.20;53.90;;;;;;5117272;28;20456;-84
2023/12/02 02:36:57;;;;;;;1.47;1.37;;;22.30;54.00;;;;;;5117528;28;20427;-89
2023/12/02 02:39:25;;;;;;;1.90;1.80;;;22.20;53.90;;;;;;5117162;28;20861;-95
2023/12/02 02:41:54;;;;;;;1.97;1.87;;;22.20;53.90;;;;;;5117210;28;20435;-83
2023/12/02 02:44:21;;;;;;;1.77;1.60;;;22.20;53.80;;;;;;5117319;28;20521;-83
2023/12/02 02:46:47;;;;;;;1.73;1.63;;;22.20;53.90;;;;;;5117131;28;20431;-95
2023/12/02 02:49:14;;;;;;;1.80;1.70;;;22.20;53.90;;;;;;5117249;28;20427;-94
2023/12/02 02:51:41;;;;;;;1.80;1.70;;;22.20;53.80;;;;;;5117049;28;20880;-82
2023/12/02 02:54:08;;;;;;;1.60;1.50;;;22.20;53.80;;;;;;5116867;28;20937;-83
2023/12/02 02:56:36;;;;;;;1.40;1.30;;;22.20;53.80;;;;;;5116710;28;20435;-83
2023/12/02 02:59:03;;;;;;;1.50;1.40;;;22.20;53.90;;;;;;5116861;28;20435;-83
2023/12/02 03:01:30;;;;;;;1.57;1.47;;;22.20;53.90;;;;;;5117050;28;20431;-83
2023/12/02 03:03:56;;;;;;;1.50;1.40;;;22.20;53.80;;;;;;5116721;28;20482;-92
2023/12/02 03:06:25;;;;;;;1.63;1.53;;;22.20;53.80;;;;;;5116776;28;20526;-95
2023/12/02 03:08:52;;;;;;;1.50;1.40;;;22.20;54.40;;;;;;5116721;28;20441;-83
2023/12/02 03:11:19;;;;;;;1.57;1.47;;;22.20;53.90;;;;;;5116435;28;20447;-94
2023/12/02 03:13:47;;;;;;;1.53;1.43;;;22.20;53.80;;;;;;5116605;28;20438;-83
2023/12/02 03:16:14;;;;;;;1.50;1.40;;;22.20;53.90;;;;;;5116408;28;20530;-94
2023/12/02 03:18:41;;;;;;;1.57;1.47;;;22.20;53.80;;;;;;5116653;28;20435;-83
2023/12/02 03:21:08;;;;;;;1.40;1.30;;;22.20;53.80;;;;;;5116252;28;20435;-93
2023/12/02 03:23:35;;;;;;;1.57;1.47;;;22.20;53.90;;;;;;5116227;28;20498;-83
2023/12/02 03:26:02;;;;;;;1.67;1.57;;;22.20;53.80;;;;;;5116522;28;20438;-83
2023/12/02 03:28:29;;;;;;;2.27;1.73;;;22.20;53.80;;;;;;5115441;28;20437;-94
2023/12/02 03:30:57;;;;;;;1.57;1.47;;;22.30;53.80;;;;;;5115963;28;20934;-90
2023/12/02 03:33:24;;;;;;;1.47;1.37;;;22.10;53.70;;;;;;5116001;28;20458;-94
2023/12/02 03:35:50;;;;;;;2.00;1.90;;;22.20;53.70;;;;;;5116036;28;20437;-95
2023/12/02 03:38:17;;;;;;;1.73;1.63;;;22.20;53.80;;;;;;5116129;28;20525;-83
2023/12/02 03:40:44;;;;;;;1.40;1.30;;;22.20;53.70;;;;;;5115721;28;20446;-83
2023/12/02 03:43:11;;;;;;;1.80;1.50;;;22.10;53.80;;;;;;5115814;28;20518;-86
2023/12/02 03:45:37;;;;;;;1.60;1.50;;;22.10;53.90;;;;;;5116073;28;20431;-83
2023/12/02 03:48:06;;;;;;;2.13;1.93;;;22.10;53.80;;;;;;5115675;28;20431;-83
2023/12/02 03:50:33;;;;;;;1.97;1.87;;;22.10;53.80;;;;;;5115654;28;20438;-83
2023/12/02 03:53:00;;;;;;;1.77;1.67;;;22.20;53.90;;;;;;5115710;28;20433;-94
2023/12/02 03:55:27;;;;;;;2.47;1.60;;;22.10;53.70;;;;;;5115896;28;20521;-95
2023/12/02 03:57:53;;;;;;;1.60;1.50;;;22.10;53.80;;;;;;5115789;28;20939;-83
2023/12/02 04:00:20;;;;;;;1.30;1.20;;;22.10;53.80;;;;;;5116100;28;20449;-83
2023/12/02 04:02:47;;;;;;;1.40;1.30;;;22.10;53.80;;;;;;5115397;28;20471;-84
2023/12/02 04:05:15;;;;;;;1.30;1.20;;;22.10;53.80;;;;;;5115491;28;20431;-83
2023/12/02 04:07:42;;;;;;;1.70;1.37;;;22.10;53.70;;;;;;5115253;28;20439;-83
2023/12/02 04:10:10;;;;;;;1.50;1.40;;;22.10;53.80;;;;;;5115453;28;20470;-83
2023/12/02 04:12:37;;;;;;;1.87;1.77;;;22.10;53.70;;;;;;5115373;28;20442;-93
2023/12/02 04:15:06;;;;;;;1.93;1.80;;;22.10;53.80;;;;;;5115538;28;20913;-94
2023/12/02 04:17:33;;;;;;;1.40;1.30;;;22.10;53.60;;;;;;5115124;28;20442;-83
2023/12/02 04:19:59;;;;;;;1.70;1.60;;;22.10;53.80;;;;;;5115747;28;20442;-94
2023/12/02 04:22:27;;;;;;;1.53;1.43;;;22.10;53.70;;;;;;5115341;28;20441;-94
2023/12/02 04:24:55;;;;;;;1.83;1.73;;;22.10;53.80;;;;;;5114957;28;20799;-83
2023/12/02 04:27:22;;;;;;;1.90;1.80;;;22.10;53.70;;;;;;5115148;28;20435;-83
2023/12/02 04:29:49;;;;;;;1.43;1.33;;;22.10;53.80;;;;;;5115131;28;20805;-84
2023/12/02 04:32:16;;;;;;;1.60;1.50;;;22.10;53.70;;;;;;5114971;28;20824;-83
2023/12/02 04:34:43;;;;;;;1.90;1.80;;;22.10;53.80;;;;;;5114945;28;20442;-83
2023/12/02 04:37:10;;;;;;;1.67;1.57;;;22.10;53.80;;;;;;5115248;28;20444;-83
2023/12/02 04:39:38;;;;;;;1.70;1.60;;;22.10;53.80;;;;;;5114732;28;20435;-83
2023/12/02 04:42:04;;;;;;;1.40;1.30;;;22.10;53.80;;;;;;5114967;28;20453;-83
2023/12/02 04:44:32;;;;;;;1.77;1.67;;;22.10;53.70;;;;;;5114497;28;20504;-83
2023/12/02 04:46:59;;;;;;;1.50;1.40;;;22.10;53.80;;;;;;5114757;28;20799;-95
2023/12/02 04:49:26;;;;;;;1.27;1.17;;;22.10;53.70;;;;;;5114745;28;20438;-95
2023/12/02 04:51:53;;;;;;;1.50;1.40;;;22.10;53.80;;;;;;5114426;28;20439;-94
2023/12/02 04:54:21;;;;;;;1.60;1.50;;;22.10;53.70;;;;;;5114469;28;20925;-83
2023/12/02 04:56:49;;;;;;;1.73;1.63;;;22.10;53.80;;;;;;5114763;28;20435;-83
2023/12/02 04:59:16;;;;;;;1.40;1.30;;;22.10;53.70;;;;;;5114679;28;20558;-94
2023/12/02 05:01:43;;;;;;;1.60;1.50;;;22.20;53.70;;;;;;5114478;28;20437;-83
2023/12/02 05:04:10;;;;;;;1.43;1.33;;;22.20;53.70;;;;;;5114665;28;20490;-83
2023/12/02 05:06:38;;;;;;;1.70;1.60;;;22.10;53.50;;;;;;5114577;28;20514;-94
2023/12/02 05:09:06;;;;;;;1.87;1.60;;;22.20;53.60;;;;;;5115956;27;20478;-83
2023/12/02 05:11:33;;;;;;;1.47;1.37;;;22.20;53.60;;;;;;5114126;28;20506;-83
2023/12/02 05:14:02;;;;;;;1.63;1.33;;;22.20;53.60;;;;;;5113742;28;20466;-83
2023/12/02 05:16:29;;;;;;;1.63;1.50;;;22.20;53.50;;;;;;5114037;28;20514;-95
2023/12/02 05:18:55;;;;;;;1.20;1.10;;;22.20;53.50;;;;;;5113982;28;20469;-83
2023/12/02 05:21:22;;;;;;;1.20;1.03;;;22.20;53.50;;;;;;5114024;28;20926;-83
2023/12/02 05:23:49;;;;;;;1.60;1.50;;;22.20;53.50;;;;;;5114057;28;20521;-91
2023/12/02 05:26:16;;;;;;;1.50;1.40;;;22.20;53.50;;;;;;5113918;28;20449;-83
2023/12/02 05:28:43;;;;;;;1.57;1.43;;;22.20;53.40;;;;;;5113796;28;20776;-83
2023/12/02 05:31:12;;;;;;;1.50;1.40;;;22.40;53.60;;;;;;5113965;28;20426;-91
2023/12/02 05:33:38;;;;;;;1.67;1.57;;;22.20;53.40;;;;;;5113677;28;20458;-83
2023/12/02 05:36:05;;;;;;;1.50;1.40;;;22.20;53.40;;;;;;5113847;28;20438;-83
2023/12/02 05:38:32;;;;;;;1.40;1.30;;;22.30;53.50;;;;;;5113571;28;20925;-84
2023/12/02 05:40:59;;;;;;;1.60;1.50;;;22.20;53.30;;;;;;5113721;28;20463;-83
2023/12/02 05:43:26;;;;;;;1.63;1.53;;;22.30;53.40;;;;;;5114059;28;20470;-83
2023/12/02 05:45:52;;;;;;;1.43;1.33;;;22.30;53.40;;;;;;5113857;28;20426;-93
2023/12/02 05:48:20;;;;;;;1.43;1.33;;;22.30;53.40;;;;;;5113699;28;20431;-83
2023/12/02 05:50:47;;;;;;;1.50;1.40;;;22.30;53.30;;;;;;5114595;27;20434;-84
2023/12/02 05:53:14;;;;;;;1.43;1.33;;;22.30;54.00;;;;;;5120402;27;20453;-94
2023/12/02 05:55:41;;;;;;;1.67;1.57;;;22.30;53.40;;;;;;5118073;28;20441;-83
2023/12/02 05:58:08;;;;;;;1.80;1.70;;;22.30;53.30;;;;;;5117529;28;20439;-83
2023/12/02 06:00:35;;;;;;;1.37;1.27;;;22.30;53.30;;;;;;5117566;28;20905;-91
2023/12/02 06:03:02;;;;;;;1.77;1.67;;;22.30;53.20;;;;;;5117654;28;20430;-83
2023/12/02 06:05:31;;;;;;;1.60;1.50;;;22.30;53.20;;;;;;5117897;28;20491;-83
2023/12/02 06:07:58;;;;;;;1.70;1.60;;;22.30;53.10;;;;;;5117505;28;20441;-83
2023/12/02 06:10:24;;;;;;;1.60;1.50;;;22.30;53.30;;;;;;5117383;28;20452;-83
2023/12/02 06:12:51;;;;;;;1.63;1.53;;;22.30;53.10;;;;;;5117562;28;20441;-83
2023/12/02 06:15:19;;;;;;;1.47;1.37;;;22.30;53.30;;;;;;5117525;28;20437;-94
2023/12/02 06:17:46;;;;;;;1.40;1.30;;;22.30;53.20;;;;;;5117281;28;20431;-83
2023/12/02 06:20:13;;;;;;;1.40;1.30;;;22.30;53.20;;;;;;5117573;28;20426;-83
2023/12/02 06:22:41;;;;;;;1.33;1.23;;;22.30;53.30;;;;;;5117526;28;20507;-83
2023/12/02 06:25:08;;;;;;;1.50;1.40;;;22.30;53.10;;;;;;5117873;27;20486;-83
2023/12/02 06:27:35;;;;;;;1.30;1.20;;;22.30;53.20;;;;;;5117281;28;20860;-83
2023/12/02 06:30:02;;;;;;;1.37;1.27;;;22.30;53.20;;;;;;5136222;27;20438;-83
2023/12/02 06:32:29;;;;;;;1.33;1.23;;;22.30;53.20;;;;;;5137455;27;20626;-83
2023/12/02 06:34:56;;;;;;;1.40;1.30;;;22.30;53.20;;;;;;5137586;27;20529;-83
2023/12/02 06:37:22;;;;;;;1.77;1.67;;;22.30;53.20;;;;;;5137414;27;20445;-83
2023/12/02 06:39:51;;;;;;;1.30;1.10;;;22.30;53.20;;;;;;5137615;27;20487;-83
2023/12/02 06:42:18;;;;;;;1.30;1.20;;;22.30;53.10;;;;;;5137787;27;20425;-83
2023/12/02 06:44:44;;;;;;;1.50;1.40;;;22.30;53.10;;;;;;5137460;27;20488;-83
2023/12/02 06:47:13;;;;;;;1.50;1.30;;;22.30;53.10;;;;;;5137490;27;20437;-83
2023/12/02 06:49:39;;;;;;;1.43;1.33;;;22.30;53.00;;;;;;5137495;27;20483;-89
2023/12/02 06:52:06;;;;;;;1.17;1.07;;;22.40;53.10;;;;;;5137388;27;20786;-83
2023/12/02 06:54:36;;;;;;;1.90;1.80;;;22.40;53.20;;;;;;5137395;27;20833;-84
2023/12/02 06:57:05;;;;;;;1.70;1.60;;;22.40;53.00;;;;;;5136941;27;20444;-88
2023/12/02 06:59:32;;;;;;;1.30;1.20;;;22.40;53.20;;;;;;5137202;27;20437;-95
2023/12/02 07:01:59;;;;;;;1.60;1.50;;;22.40;53.10;;;;;;5136547;27;20433;-83
2023/12/02 07:04:25;;;;;;;1.53;1.43;;;22.40;53.10;;;;;;5136422;27;20839;-83
2023/12/02 07:06:53;;;;;;;1.50;1.33;;;22.40;53.10;;;;;;5136913;27;20441;-83
2023/12/02 07:09:20;;;;;;;1.60;1.50;;;22.40;53.00;;;;;;5136909;27;20430;-83
2023/12/02 07:11:46;;;;;;;1.33;1.17;;;22.40;53.00;;;;;;5136947;27;20434;-83
2023/12/02 07:14:15;;;;;;;1.50;1.40;;;22.40;53.00;;;;;;5136949;27;20434;-83
2023/12/02 07:16:41;;;;;;;1.50;1.40;;;22.40;53.00;;;;;;5136904;27;20513;-83
2023/12/02 07:19:08;;;;;;;1.60;1.50;;;22.40;53.00;;;;;;5136916;27;20947;-96
2023/12/02 07:21:35;;;;;;;1.60;1.50;;;22.40;52.90;;;;;;5136934;27;20433;-83
2023/12/02 07:24:02;;;;;;;1.47;1.37;;;22.40;52.90;;;;;;5118421;27;20915;-83
2023/12/02 07:26:29;;;;;;;1.30;1.20;;;22.50;53.10;;;;;;5116203;28;20794;-88
2023/12/02 07:28:55;;;;;;;1.20;1.10;;;22.50;53.10;;;;;;5116139;28;20438;-83
2023/12/02 07:31:23;;;;;;;1.33;1.23;;;22.40;52.90;;;;;;5115988;28;20431;-83
2023/12/02 07:33:50;;;;;;;1.37;1.27;;;22.40;53.00;;;;;;5115987;28;20443;-94
2023/12/02 07:36:17;;;;;;;1.20;1.10;;;22.40;53.00;;;;;;5115806;28;20435;-83
2023/12/02 07:38:44;;;;;;;1.70;1.60;;;22.40;53.00;;;;;;5115944;28;20441;-83
2023/12/02 07:41:11;;;;;;;1.43;1.33;;;22.40;52.90;;;;;;5116007;28;20451;-83
2023/12/02 07:43:37;;;;;;;1.60;1.50;;;22.40;52.90;;;;;;5126585;27;20445;-92
2023/12/02 07:46:05;;;;;;;3.93;2.00;;;22.40;52.90;;;;;;5136237;27;20436;-83
2023/12/02 07:48:33;;;;;;;1.87;1.30;;;22.40;52.80;;;;;;5118330;27;20431;-83
2023/12/02 07:51:03;;;;;;;1.53;1.40;;;22.50;52.50;;;;;;5115744;28;20451;-87
2023/12/02 07:53:29;;;;;;;1.30;1.07;;;22.40;52.80;;;;;;5121008;27;20461;-82
2023/12/02 07:55:56;;;;;;;2.70;1.40;;;22.40;52.90;;;;;;5115423;28;20437;-83
2023/12/02 07:58:23;;;;;;;4.70;1.20;;;22.40;53.00;;;;;;5115513;28;20905;-83
2023/12/02 08:00:50;;;;;;;1.77;1.60;;;22.40;53.00;;;;;;5115556;28;20463;-84
2023/12/02 08:03:16;;;;;;;1.53;1.43;;;22.40;52.90;;;;;;5120238;27;20925;-84
2023/12/02 08:05:45;;;;;;;2.80;1.37;;;22.50;53.00;;;;;;5126319;27;20992;-84
2023/12/02 08:08:11;;;;;;;1.90;1.23;;;22.50;52.50;;;;;;5124867;27;20434;-83
2023/12/02 08:10:38;;;;;;;2.07;1.30;;;22.50;53.20;;;;;;5133137;27;20518;-83
2023/12/02 08:13:05;;;;;;;1.20;1.10;;;22.50;53.30;;;;;;5117183;27;20438;-83
2023/12/02 08:15:32;;;;;;;2.20;1.37;;;22.50;53.10;;;;;;5112421;28;20441;-83
2023/12/02 08:17:58;;;;;;;1.70;1.60;;;22.50;53.20;;;;;;5113651;28;20859;-83
2023/12/02 08:20:25;;;;;;;3.90;1.90;;;22.50;53.20;;;;;;5113602;28;20925;-83
2023/12/02 08:22:53;;;;;;;2.80;1.73;;;22.50;53.10;;;;;;5112789;28;20526;-83
2023/12/02 08:25:20;;;;;;;7.10;1.70;;;22.50;53.20;;;;;;5112797;28;20853;-82
2023/12/02 08:27:47;;;;;;;1.50;1.40;;;22.50;53.20;;;;;;5113166;28;20449;-82
2023/12/02 08:30:14;;;;;;;1.73;1.53;;;22.50;53.30;;;;;;5113067;28;20435;-82
2023/12/02 08:32:41;;;;;;;8.23;1.50;;;22.50;53.30;;;;;;5112763;28;20973;-83
2023/12/02 08:35:08;;;;;;;1.60;1.50;;;22.50;53.20;;;;;;5112915;28;20525;-83
2023/12/02 08:37:35;;;;;;;1.20;1.00;;;22.50;53.20;;;;;;5112939;28;20445;-82
2023/12/02 08:40:05;;;;;;;3.77;1.20;;;22.50;53.30;;;;;;5118336;27;20442;-92
2023/12/02 08:42:32;;;;;;;2.93;1.33;;;22.50;53.20;;;;;;5117722;27;20800;-84
2023/12/02 08:44:59;;;;;;;3.80;1.97;;;22.50;52.50;;;;;;5134707;27;20567;-84
2023/12/02 08:47:26;;;;;;;2.00;1.33;;;22.60;52.90;;;;;;5134800;27;20426;-84
2023/12/02 08:49:52;;;;;;;2.90;1.47;;;22.70;52.20;;;;;;5135112;27;20426;-86
2023/12/02 08:52:20;;;;;;;4.43;2.17;;;22.60;52.70;;;;;;5134907;27;20430;-89
2023/12/02 08:54:47;;;;;;;2.03;1.70;;;22.60;52.90;;;;;;5134628;27;20933;-86
2023/12/02 08:57:15;;;;;;;2.13;1.77;;;22.60;52.80;;;;;;5114287;28;20426;-82
2023/12/02 08:59:42;;;;;;;2.40;1.70;;;22.60;52.50;;;;;;5114237;28;20438;-86
2023/12/02 09:02:09;;;;;;;3.17;2.50;;;22.60;52.60;;;;;;5116391;28;20445;-89
2023/12/02 09:04:36;;;;;;;5.00;1.90;;;22.60;51.70;;;;;;5122044;27;20485;-84
2023/12/02 09:07:03;;;;;;;3.80;1.83;;;22.60;51.90;;;;;;5117140;27;20808;-84
2023/12/02 09:09:30;;;;;;;10.47;2.00;;;22.50;52.80;;;;;;5134463;27;20464;-92
2023/12/02 09:11:57;;;;;;;1.83;1.43;;;22.60;53.10;;;;;;5134957;27;20434;-92
2023/12/02 09:14:25;;;;;;;3.00;1.97;;;22.50;52.90;;;;;;5143680;22;20454;-84
2023/12/02 09:16:52;;;;;;;3.57;2.70;;;22.60;52.80;;;;;;5069584;28;20450;-95
2023/12/02 09:19:52;;;;;;;4.20;2.07;;;22.60;52.00;;;;;;5082353;28;20448;-82
2023/12/02 09:22:51;;;;;;;2.40;1.70;;;22.70;52.20;;;;;;5088556;28;20429;-86
2023/12/02 09:25:28;;;;;;;3.30;2.23;;;22.80;52.60;;;;;;5072769;28;20487;-93
2023/12/02 09:28:18;;;;;;;2.47;2.00;;;22.80;52.40;;;;;;5073406;28;20437;-93
2023/12/02 09:31:05;;;;;;;3.73;2.20;;;22.80;52.30;;;;;;5083987;28;20448;-86
2023/12/02 09:33:34;;;;;;;3.60;2.00;;;22.80;52.70;;;;;;5101829;22;20553;-88
2023/12/02 09:38:29;;;;;;;3.77;2.07;;;22.90;53.00;;;;;;5181781;22;20577;-90
2023/12/02 09:41:17;;;;;;;3.03;2.10;;;22.90;52.90;;;;;;5053544;28;20712;-90
2023/12/02 09:43:59;;;;;;;2.17;1.70;;;22.90;51.10;;;;;;5083546;22;20474;-85
2023/12/02 09:46:32;;;;;;;3.00;2.33;;;22.90;51.20;;;;;;5143374;22;20485;-85
2023/12/02 09:51:35;;;;;;;7.43;2.00;;;23.10;52.10;;;;;;5142524;22;20479;-85
2023/12/02 09:54:09;;;;;;;3.53;1.90;;;23.10;52.60;;;;;;5149096;22;20208;-85
2023/12/02 09:56:41;;;;;;;5.30;2.90;;;23.20;52.70;;;;;;5134746;28;20465;-87
2023/12/02 09:59:15;;;;;;;4.73;2.50;;;23.50;53.00;;;;;;5136585;28;20442;-88
2023/12/02 10:04:38;;;;;;;2.77;2.20;;;24.00;53.00;;;;;;5114760;22;20515;-86
2023/12/02 10:07:11;;;;;;;3.17;2.30;;;24.40;52.90;;;;;;5087005;28;20452;-90
2023/12/02 10:09:44;;;;;;;3.40;2.37;;;24.40;52.00;;;;;;5091593;28;20496;-86
2023/12/02 10:12:25;;;;;;;3.20;2.10;;;24.60;52.10;;;;;;5105414;23;20484;-85
2023/12/02 10:17:50;;;;;;;3.40;2.10;;;24.70;52.70;;;;;;1043141;22;20793;-94
2023/12/02 10:20:24;;;;;;;2.30;2.10;;;24.60;53.10;;;;;;5081824;28;20954;-86
2023/12/02 10:22:58;;;;;;;5.10;2.00;;;24.50;52.90;;;;;;5074390;28;20432;-86
2023/12/02 10:25:34;;;;;;;4.33;2.23;;;24.50;53.40;;;;;;5074196;28;20530;-85
2023/12/02 10:28:11;;;;;;;2.60;2.40;;;24.50;53.40;;;;;;5074157;28;20846;-86
2023/12/02 10:30:46;;;;;;;2.33;2.13;;;24.40;53.50;;;;;;5074536;28;20436;-85
2023/12/02 10:33:27;;;;;;;5.13;1.77;;;24.50;53.50;;;;;;5074842;28;20443;-86
2023/12/02 10:35:58;;;;;;;2.20;1.73;;;24.50;53.60;;;;;;5073904;28;20428;-85
2023/12/02 10:38:47;;;;;;;4.20;2.10;;;24.50;53.40;;;;;;5080099;28;20799;-86
2023/12/02 10:41:23;;;;;;;2.53;1.90;;;24.50;53.40;;;;;;5083925;28;20465;-86
2023/12/02 10:43:55;;;;;;;4.07;2.10;;;24.50;53.20;;;;;;5077695;28;20456;-85
2023/12/02 10:46:23;;;;;;;2.97;2.03;;;24.40;53.30;;;;;;5076657;28;20479;-86
2023/12/02 10:48:51;;;;;;;3.53;1.67;;;24.40;53.00;;;;;;5076922;28;20436;-86
2023/12/02 10:51:23;;;;;;;3.30;2.40;;;24.40;52.90;;;;;;5077775;28;20542;-85
2023/12/02 10:53:51;;;;;;;2.00;1.80;;;24.50;53.00;;;;;;5077133;28;20480;-86
2023/12/02 10:56:23;;;;;;;2.30;2.10;;;24.50;52.80;;;;;;5077782;28;20527;-85
2023/12/02 10:58:52;;;;;;;2.90;2.13;;;24.50;52.80;;;;;;5076516;28;20456;-86
2023/12/02 11:01:27;;;;;;;2.23;2.00;;;24.50;52.70;;;;;;5077723;28;20972;-86
2023/12/02 11:06:29;;;;;;;3.73;2.77;;;24.40;52.80;;;;;;5061755;28;20493;-83
2023/12/02 11:09:02;;;;;;;2.03;1.83;;;24.30;51.00;;;;;;5076623;28;20836;-92
2023/12/02 11:11:47;;;;;;;4.00;3.60;;;24.30;52.30;;;;;;5075725;28;20440;-92
2023/12/02 11:14:17;;;;;;;2.80;2.57;;;24.20;48.70;;;;;;5075681;28;21027;-88
2023/12/02 11:16:58;;;;;;;2.33;2.00;;;24.10;51.50;;;;;;5074484;28;20464;-84
2023/12/02 11:19:37;;;;;;;3.53;2.13;;;24.00;51.10;;;;;;5072221;28;20449;-91
2023/12/02 11:22:24;;;;;;;2.13;1.70;;;24.00;51.90;;;;;;5075545;28;20436;-87
2023/12/02 11:25:07;;;;;;;4.13;1.97;;;24.00;52.40;;;;;;5074604;28;20510;-88
2023/12/02 11:27:42;;;;;;;2.13;1.93;;;24.00;52.50;;;;;;5075027;28;20439;-87
2023/12/02 11:30:19;;;;;;;2.87;1.93;;;23.90;52.50;;;;;;5075033;28;20535;-90
2023/12/02 11:32:55;;;;;;;2.87;1.57;;;23.90;52.50;;;;;;5074824;28;20442;-87
2023/12/02 11:35:25;;;;;;;4.20;2.20;;;23.90;52.40;;;;;;5075260;28;20436;-87
2023/12/02 11:37:59;;;;;;;2.20;1.70;;;23.90;52.40;;;;;;5074529;28;20433;-88
2023/12/02 11:40:36;;;;;;;2.70;2.13;;;23.90;52.60;;;;;;5075021;28;20494;-91
2023/12/02 11:43:12;;;;;;;3.73;1.67;;;23.80;52.50;;;;;;5075080;28;20463;-88
2023/12/02 11:45:40;;;;;;;1.97;1.87;;;23.80;52.60;;;;;;5074961;28;20476;-86
2023/12/02 11:48:15;;;;;;;1.70;1.50;;;23.80;52.70;;;;;;5074636;28;20855;-83
2023/12/02 11:50:57;;;;;;;3.73;2.40;;;23.80;52.60;;;;;;5074728;28;20432;-87
2023/12/02 11:53:43;;;;;;;2.80;2.30;;;23.80;51.40;;;;;;5074599;28;20436;-87
2023/12/02 11:56:11;;;;;;;2.13;1.60;;;23.80;52.40;;;;;;5074913;28;20432;-88
2023/12/02 11:58:48;;;;;;;2.10;1.87;;;23.70;52.50;;;;;;5075004;28;20463;-89
2023/12/02 12:01:43;;;;;;;2.20;2.10;;;23.70;52.60;;;;;;5074806;28;20523;-90
2023/12/02 12:04:29;;;;;;;1.80;1.43;;;23.70;52.50;;;;;;5074877;28;20436;-90
2023/12/02 12:07:09;;;;;;;2.20;2.00;;;23.80;52.80;;;;;;5074869;28;20851;-87
2023/12/02 12:09:47;;;;;;;2.73;1.60;;;23.70;52.70;;;;;;5075075;28;20463;-87
2023/12/02 12:12:15;;;;;;;5.60;1.73;;;23.70;52.70;;;;;;5074931;28;20428;-87
2023/12/02 12:14:43;;;;;;;5.33;2.47;;;23.70;52.80;;;;;;5074548;28;20432;-86
2023/12/02 12:17:10;;;;;;;2.30;2.00;;;23.80;52.80;;;;;;5074740;28;20451;-85
2023/12/02 12:19:37;;;;;;;2.13;1.93;;;23.60;51.30;;;;;;5074294;28;20662;-86
2023/12/02 12:22:04;;;;;;;2.50;2.30;;;23.50;51.20;;;;;;5072871;28;20436;-84
2023/12/02 12:24:31;;;;;;;2.27;1.83;;;23.40;51.80;;;;;;5073464;28;20442;-89
2023/12/02 12:27:00;;;;;;;1.87;1.70;;;23.30;52.00;;;;;;5073706;28;20490;-87
2023/12/02 12:29:27;;;;;;;3.40;2.10;;;23.40;52.60;;;;;;5073756;28;20437;-84
2023/12/02 12:31:59;;;;;;;3.00;2.17;;;23.30;52.30;;;;;;5074477;28;20441;-89
2023/12/02 12:34:27;;;;;;;2.63;1.63;;;23.30;52.40;;;;;;5074347;28;20445;-88
2023/12/02 12:36:56;;;;;;;4.87;1.90;;;23.30;52.90;;;;;;5074211;28;20447;-88
2023/12/02 12:39:23;;;;;;;4.27;1.70;;;23.40;52.80;;;;;;5074009;28;20468;-89
2023/12/02 12:41:49;;;;;;;3.80;2.27;;;23.50;53.00;;;;;;5075176;28;20445;-89
2023/12/02 12:44:19;;;;;;;2.77;1.70;;;23.40;52.80;;;;;;5075211;28;20447;-89
2023/12/02 12:46:46;;;;;;;4.17;1.90;;;23.40;53.00;;;;;;5073207;28;20483;-89
2023/12/02 12:49:20;;;;;;;2.20;2.03;;;23.50;53.00;;;;;;5073110;28;20451;-89
2023/12/02 12:51:51;;;;;;;2.67;2.40;;;23.50;52.90;;;;;;5073625;28;20445;-87
2023/12/02 12:54:20;;;;;;;3.03;1.90;;;23.50;52.80;;;;;;5073467;28;20456;-88
2023/12/02 12:56:53;;;;;;;1.67;1.50;;;23.60;52.80;;;;;;5073422;28;20444;-87
2023/12/02 12:59:26;;;;;;;3.67;2.20;;;23.50;52.70;;;;;;5073455;28;20440;-88
2023/12/02 13:02:05;;;;;;;2.83;2.30;;;23.50;52.80;;;;;;5072778;28;20494;-88
2023/12/02 13:04:36;;;;;;;2.10;1.90;;;23.50;52.80;;;;;;5073294;28;20463;-89
2023/12/02 13:07:08;;;;;;;5.03;1.70;;;23.50;52.70;;;;;;5073472;28;20835;-87
2023/12/02 13:09:34;;;;;;;2.60;2.00;;;23.50;52.80;;;;;;5073723;28;20459;-88
2023/12/02 13:12:13;;;;;;;3.70;2.30;;;23.50;52.70;;;;;;5073527;28;20432;-87